Autryville, North Carolina
Current Conditions -  °F | °C
As of 11:04 AM on Monday 24 Nov 2014 (Local Time) from KFAY Reporting Station
Overcast Overcast  
Wind Chill: 71°   Ceiling: 1600
Heat Index: 71°   Visibility: 10mi
Dew Point: 66°   Wind: 8mph
Humidity: 84%   Direction: 200°SSW
Pressure: 29.85"   Gusts: NA
Location:  35°N, 78.64°W
Report Text: KFAY 241604Z 20007KT 10SM FEW012 BKN016 OVC027 22/19 A2985 RMK AO2 T02170189
Loading
Personal Weather Stations






























Interactive Weather Map New forecast layout! Learn more

10-Day Weather Forecast

Advertisements
Track Severe Weather on mobile